Time;durP1;ratioP1;P1;durP2;ratioP2;P2;SDS_P1;SDS_P2;PMS_P1;PMS_P2;Temp;Humidity;BMP_temperature;BMP_pressure;BME280_temperature;BME280_humidity;BME280_pressure;Samples;Min_cycle;Max_cycle;Signal;HPM_P1;HPM_P2
2021/05/17 00:00:18;;;;;;;471.08;313.80;;;;;;;;;;5076376;28;20032;-82
2021/05/17 00:02:46;;;;;;;470.92;312.33;;;;;;;;;;5076179;28;20134;-83
2021/05/17 00:05:12;;;;;;;478.60;317.98;;;;;;;;;;5075517;28;20053;-81
2021/05/17 00:07:38;;;;;;;473.75;314.08;;;;;;;;;;5062188;28;20021;-80
2021/05/17 00:10:05;;;;;;;486.15;320.83;;;;;;;;;;5075247;28;20040;-80
2021/05/17 00:12:31;;;;;;;544.47;347.45;;;;;;;;;;5075590;28;20179;-81
2021/05/17 00:14:57;;;;;;;508.48;330.70;;;;;;;;;;5076404;28;20073;-82
2021/05/17 00:17:23;;;;;;;510.13;336.55;;;;;;;;;;5070950;28;20039;-83
2021/05/17 00:19:49;;;;;;;508.38;334.05;;;;;;;;;;5075573;28;20107;-82
2021/05/17 00:22:15;;;;;;;514.13;336.05;;;;;;;;;;5071132;28;20057;-81
2021/05/17 00:24:41;;;;;;;491.85;322.60;;;;;;;;;;5087525;28;20028;-81
2021/05/17 00:27:08;;;;;;;512.30;338.42;;;;;;;;;;5055783;28;20039;-82
2021/05/17 00:29:34;;;;;;;514.20;337.48;;;;;;;;;;5055891;28;20084;-82
2021/05/17 00:32:00;;;;;;;514.55;328.75;;;;;;;;;;5061177;28;20004;-80
2021/05/17 00:34:26;;;;;;;503.88;330.88;;;;;;;;;;5074630;28;20036;-80
2021/05/17 00:36:52;;;;;;;554.03;355.85;;;;;;;;;;5074511;28;20035;-80
2021/05/17 00:39:18;;;;;;;565.67;367.00;;;;;;;;;;5072963;28;20024;-83
2021/05/17 00:41:45;;;;;;;516.45;328.67;;;;;;;;;;5060055;28;20023;-82
2021/05/17 00:44:11;;;;;;;473.90;315.50;;;;;;;;;;5075309;28;20035;-80
2021/05/17 00:46:39;;;;;;;463.20;305.90;;;;;;;;;;5067545;28;20016;-81
2021/05/17 00:49:05;;;;;;;461.17;311.73;;;;;;;;;;5075229;28;20024;-80
2021/05/17 00:51:34;;;;;;;459.95;305.95;;;;;;;;;;5073331;28;20815;-81
2021/05/17 00:54:01;;;;;;;463.55;305.20;;;;;;;;;;5074954;28;20035;-81
2021/05/17 00:56:27;;;;;;;462.02;308.08;;;;;;;;;;5074883;28;20032;-82
2021/05/17 00:58:54;;;;;;;457.35;305.45;;;;;;;;;;5072493;28;20028;-80
2021/05/17 01:01:20;;;;;;;459.55;304.42;;;;;;;;;;5077675;28;20431;-82
2021/05/17 01:03:46;;;;;;;458.10;306.90;;;;;;;;;;5055623;28;20025;-81
2021/05/17 01:06:12;;;;;;;462.25;307.27;;;;;;;;;;5066039;28;20015;-79
2021/05/17 01:08:47;;;;;;;460.75;304.92;;;;;;;;;;5074051;28;20020;-82
2021/05/17 01:11:14;;;;;;;461.05;306.63;;;;;;;;;;5073405;28;20110;-80
2021/05/17 01:13:41;;;;;;;459.42;307.98;;;;;;;;;;5074193;28;20038;-83
2021/05/17 01:16:08;;;;;;;457.60;302.55;;;;;;;;;;5068818;28;20029;-79
2021/05/17 01:18:34;;;;;;;459.40;309.05;;;;;;;;;;5071006;28;20024;-80
2021/05/17 01:21:00;;;;;;;461.05;305.88;;;;;;;;;;5054120;28;20131;-80
2021/05/17 01:25:53;;;;;;;461.60;310.60;;;;;;;;;;5072556;28;20025;-80
2021/05/17 01:28:22;;;;;;;462.23;308.25;;;;;;;;;;5049194;28;20135;-82
2021/05/17 01:30:50;;;;;;;460.77;310.25;;;;;;;;;;5055015;28;20017;-81
2021/05/17 01:33:16;;;;;;;456.13;306.10;;;;;;;;;;5049999;28;20682;-82
2021/05/17 01:35:42;;;;;;;460.80;307.63;;;;;;;;;;5044965;28;20024;-82
2021/05/17 01:38:08;;;;;;;461.92;305.25;;;;;;;;;;5054496;28;20033;-81
2021/05/17 01:40:38;;;;;;;458.85;312.38;;;;;;;;;;5050185;28;20654;-81
2021/05/17 01:43:04;;;;;;;462.70;312.77;;;;;;;;;;5054558;28;20051;-83
2021/05/17 01:45:31;;;;;;;460.08;307.10;;;;;;;;;;5052289;28;20037;-83
2021/05/17 01:47:58;;;;;;;459.05;307.10;;;;;;;;;;5052838;28;20060;-82
2021/05/17 01:50:25;;;;;;;457.45;303.63;;;;;;;;;;5048959;28;20020;-82
2021/05/17 01:52:52;;;;;;;454.45;302.55;;;;;;;;;;5046648;28;20020;-81
2021/05/17 01:55:18;;;;;;;459.88;313.45;;;;;;;;;;5054524;28;20021;-83
2021/05/17 01:57:45;;;;;;;457.17;306.15;;;;;;;;;;5053411;28;20127;-81
2021/05/17 02:00:12;;;;;;;458.65;311.75;;;;;;;;;;5052488;28;20062;-81
2021/05/17 02:02:38;;;;;;;458.27;311.75;;;;;;;;;;5045096;28;20123;-82
2021/05/17 02:05:05;;;;;;;464.08;315.65;;;;;;;;;;5053334;28;20154;-81
2021/05/17 02:07:31;;;;;;;457.92;308.52;;;;;;;;;;5043290;28;20078;-81
2021/05/17 02:09:59;;;;;;;457.00;308.52;;;;;;;;;;5033495;28;20021;-82
2021/05/17 02:12:25;;;;;;;453.23;304.27;;;;;;;;;;5042486;28;20016;-84
2021/05/17 02:14:52;;;;;;;454.40;307.92;;;;;;;;;;5054076;28;20016;-82
2021/05/17 02:17:19;;;;;;;456.38;308.52;;;;;;;;;;5051933;28;20049;-80
2021/05/17 02:19:46;;;;;;;456.45;309.80;;;;;;;;;;5047192;28;20443;-82
2021/05/17 02:22:16;;;;;;;456.02;305.65;;;;;;;;;;5064722;28;20023;-81
2021/05/17 02:24:43;;;;;;;;;;;;;;;;;;5059310;28;20107;-82
2021/05/17 02:27:09;;;;;;;449.23;287.48;;;;;;;;;;5054198;28;19900;-81
2021/05/17 02:29:35;;;;;;;453.75;301.23;;;;;;;;;;5053742;28;20127;-82
2021/05/17 02:32:01;;;;;;;454.35;297.30;;;;;;;;;;5058838;28;20024;-82
2021/05/17 02:34:28;;;;;;;456.63;304.13;;;;;;;;;;5073695;28;20024;-82
2021/05/17 02:36:54;;;;;;;457.20;305.42;;;;;;;;;;5073701;28;20032;-81
2021/05/17 02:39:20;;;;;;;466.67;310.30;;;;;;;;;;5073502;28;20027;-82
2021/05/17 02:41:46;;;;;;;458.38;306.80;;;;;;;;;;5073212;28;20020;-81
2021/05/17 02:44:13;;;;;;;463.60;311.30;;;;;;;;;;5064948;28;20012;-83
2021/05/17 02:46:39;;;;;;;459.10;300.60;;;;;;;;;;5066730;28;20027;-83
2021/05/17 02:49:05;;;;;;;462.42;304.17;;;;;;;;;;5073783;28;20030;-81
2021/05/17 02:51:32;;;;;;;462.83;306.42;;;;;;;;;;5068965;28;20466;-83
2021/05/17 02:54:17;;;;;;;473.70;320.75;;;;;;;;;;5053192;28;20431;-82
2021/05/17 02:57:03;;;;;;;473.00;316.10;;;;;;;;;;5053219;28;20052;-82
2021/05/17 02:59:38;;;;;;;479.30;313.55;;;;;;;;;;5053219;28;20032;-82
2021/05/17 03:02:08;;;;;;;496.95;332.35;;;;;;;;;;5058128;28;20124;-82
2021/05/17 03:04:37;;;;;;;533.97;337.33;;;;;;;;;;5057192;28;20028;-81
2021/05/17 03:07:04;;;;;;;597.03;374.65;;;;;;;;;;5064888;28;20126;-80
2021/05/17 03:09:32;;;;;;;575.83;355.02;;;;;;;;;;5061606;28;20044;-82
2021/05/17 03:12:02;;;;;;;565.78;355.95;;;;;;;;;;5061430;28;20020;-82
2021/05/17 03:14:29;;;;;;;520.53;333.08;;;;;;;;;;5073043;28;20019;-82
2021/05/17 03:16:57;;;;;;;529.85;342.92;;;;;;;;;;5072242;28;20342;-80
2021/05/17 03:19:23;;;;;;;535.35;333.05;;;;;;;;;;5077399;28;20020;-82
2021/05/17 03:21:53;;;;;;;524.40;331.90;;;;;;;;;;5079966;28;20044;-82
2021/05/17 03:24:19;;;;;;;479.20;315.65;;;;;;;;;;5057510;28;20020;-82
2021/05/17 03:26:45;;;;;;;477.98;314.67;;;;;;;;;;5076828;28;20024;-82
2021/05/17 03:29:12;;;;;;;476.08;315.63;;;;;;;;;;5074803;28;20422;-83
2021/05/17 03:31:38;;;;;;;475.38;311.40;;;;;;;;;;5061947;28;20038;-83
2021/05/17 03:34:04;;;;;;;467.98;304.02;;;;;;;;;;5077269;28;20107;-82
2021/05/17 03:36:30;;;;;;;476.92;306.90;;;;;;;;;;5076515;28;20349;-81
2021/05/17 03:38:56;;;;;;;480.75;315.20;;;;;;;;;;5077017;28;20016;-80
2021/05/17 03:41:22;;;;;;;479.95;311.38;;;;;;;;;;5067193;28;20016;-81
2021/05/17 03:43:48;;;;;;;471.30;307.90;;;;;;;;;;5072345;28;20028;-81
2021/05/17 03:46:14;;;;;;;469.88;303.85;;;;;;;;;;5066850;28;20469;-81
2021/05/17 03:48:43;;;;;;;469.33;314.33;;;;;;;;;;5071029;28;20016;-80
2021/05/17 03:51:09;;;;;;;467.95;306.40;;;;;;;;;;5070729;28;20020;-80
2021/05/17 03:53:35;;;;;;;471.10;313.27;;;;;;;;;;5076402;28;20020;-82
2021/05/17 03:56:01;;;;;;;468.20;305.00;;;;;;;;;;5076516;28;20049;-81
2021/05/17 03:58:27;;;;;;;468.10;308.73;;;;;;;;;;5072977;28;20111;-82
2021/05/17 04:00:56;;;;;;;466.85;308.90;;;;;;;;;;5094194;28;20153;-80
2021/05/17 04:03:23;;;;;;;467.42;305.17;;;;;;;;;;5058617;28;20107;-81
2021/05/17 04:13:58;;;;;;;475.75;308.38;;;;;;;;;;5073699;28;20488;-80
2021/05/17 04:16:24;;;;;;;479.70;309.63;;;;;;;;;;5059819;28;20032;-82
2021/05/17 04:18:51;;;;;;;475.73;311.48;;;;;;;;;;5056052;28;20060;-81
2021/05/17 04:21:17;;;;;;;478.55;310.25;;;;;;;;;;5059676;28;20045;-80
2021/05/17 04:23:43;;;;;;;485.63;317.77;;;;;;;;;;5070823;28;20028;-81
2021/05/17 04:26:09;;;;;;;481.90;310.08;;;;;;;;;;5075929;28;20035;-80
2021/05/17 04:28:35;;;;;;;480.75;306.00;;;;;;;;;;5075198;28;20028;-81
2021/05/17 04:31:01;;;;;;;479.42;309.45;;;;;;;;;;5075680;28;20047;-82
2021/05/17 04:33:27;;;;;;;489.63;318.80;;;;;;;;;;5075011;28;20020;-80
2021/05/17 04:35:53;;;;;;;486.35;312.52;;;;;;;;;;5075948;28;20716;-81
2021/05/17 04:38:19;;;;;;;496.05;321.63;;;;;;;;;;5060144;28;20093;-81
2021/05/17 04:40:47;;;;;;;495.50;320.42;;;;;;;;;;5070073;28;20024;-81
2021/05/17 04:43:13;;;;;;;501.27;323.15;;;;;;;;;;5073034;28;20024;-81
2021/05/17 04:45:39;;;;;;;504.02;324.05;;;;;;;;;;5067633;28;20462;-81
2021/05/17 04:48:05;;;;;;;502.80;324.17;;;;;;;;;;5073552;28;20024;-80
2021/05/17 04:50:31;;;;;;;503.38;325.40;;;;;;;;;;5075236;28;20524;-80
2021/05/17 04:52:57;;;;;;;507.90;328.30;;;;;;;;;;5074600;28;20070;-82
2021/05/17 04:55:23;;;;;;;507.33;330.20;;;;;;;;;;5075627;28;20016;-80
2021/05/17 04:57:49;;;;;;;508.50;325.98;;;;;;;;;;5071011;28;20468;-81
2021/05/17 05:00:15;;;;;;;531.00;337.33;;;;;;;;;;5075246;28;20033;-82
2021/05/17 05:02:41;;;;;;;515.80;336.48;;;;;;;;;;5072984;28;20024;-80
2021/05/17 05:05:08;;;;;;;520.20;338.45;;;;;;;;;;5074314;28;20307;-82
2021/05/17 05:07:34;;;;;;;502.63;321.13;;;;;;;;;;5055824;28;20090;-80
2021/05/17 05:10:00;;;;;;;494.75;323.30;;;;;;;;;;5055063;28;20474;-81
2021/05/17 05:12:26;;;;;;;501.52;324.83;;;;;;;;;;5065355;28;20043;-81
2021/05/17 05:14:52;;;;;;;486.55;319.65;;;;;;;;;;5056739;28;20422;-82
2021/05/17 05:17:21;;;;;;;479.98;322.00;;;;;;;;;;5070179;28;20515;-82
2021/05/17 05:19:47;;;;;;;488.05;329.05;;;;;;;;;;5055501;28;20024;-81
2021/05/17 05:22:13;;;;;;;478.25;318.90;;;;;;;;;;5064487;28;20466;-81
2021/05/17 05:24:40;;;;;;;478.60;320.00;;;;;;;;;;5061343;28;20047;-82
2021/05/17 05:32:30;;;;;;;480.58;327.50;;;;;;;;;;5088352;28;20025;-85
2021/05/17 05:34:56;;;;;;;475.38;324.45;;;;;;;;;;5061135;28;20059;-79
2021/05/17 05:37:23;;;;;;;473.77;319.88;;;;;;;;;;5065314;28;20422;-80
2021/05/17 05:39:49;;;;;;;472.92;319.60;;;;;;;;;;5067807;28;20024;-79
2021/05/17 05:42:15;;;;;;;465.33;313.70;;;;;;;;;;5065544;28;20020;-79
2021/05/17 05:44:48;;;;;;;469.52;317.95;;;;;;;;;;5069582;28;20486;-82
2021/05/17 05:47:16;;;;;;;468.65;319.13;;;;;;;;;;5066828;28;20024;-80
2021/05/17 05:49:43;;;;;;;468.75;318.50;;;;;;;;;;5073512;28;20047;-81
2021/05/17 05:52:09;;;;;;;473.38;325.80;;;;;;;;;;5062581;28;20039;-80
2021/05/17 05:54:35;;;;;;;466.02;320.52;;;;;;;;;;5054166;28;20327;-80
2021/05/17 05:57:01;;;;;;;470.35;321.05;;;;;;;;;;5061249;28;20039;-79
2021/05/17 05:59:27;;;;;;;459.98;310.38;;;;;;;;;;5053841;28;20016;-80
2021/05/17 06:01:53;;;;;;;471.52;323.33;;;;;;;;;;5059265;28;20584;-80
2021/05/17 06:04:22;;;;;;;473.95;317.85;;;;;;;;;;5065359;28;20400;-81
2021/05/17 06:06:48;;;;;;;473.45;315.65;;;;;;;;;;5064769;28;20389;-79
2021/05/17 06:09:14;;;;;;;465.77;317.38;;;;;;;;;;5071506;28;20031;-80
2021/05/17 06:11:40;;;;;;;474.45;326.42;;;;;;;;;;5053505;28;20016;-80
2021/05/17 06:14:07;;;;;;;473.17;320.13;;;;;;;;;;5053599;28;20056;-80
2021/05/17 06:16:34;;;;;;;472.73;319.05;;;;;;;;;;5060424;28;20534;-81
2021/05/17 06:19:01;;;;;;;471.90;318.95;;;;;;;;;;5073986;28;20120;-79
2021/05/17 06:21:27;;;;;;;473.08;321.83;;;;;;;;;;5071972;28;20036;-80
2021/05/17 06:23:55;;;;;;;471.15;318.13;;;;;;;;;;5067599;28;20020;-80
2021/05/17 06:26:21;;;;;;;476.02;322.58;;;;;;;;;;5061821;28;20009;-80
2021/05/17 06:28:47;;;;;;;474.58;323.50;;;;;;;;;;5068773;28;20024;-79
2021/05/17 06:31:15;;;;;;;482.92;332.58;;;;;;;;;;5062487;28;20107;-79
2021/05/17 06:33:42;;;;;;;479.35;326.20;;;;;;;;;;5055023;28;20334;-80
2021/05/17 06:36:11;;;;;;;484.25;331.70;;;;;;;;;;5059767;28;20390;-79
2021/05/17 06:38:39;;;;;;;480.70;327.95;;;;;;;;;;5072678;28;20044;-81
2021/05/17 06:41:06;;;;;;;476.25;326.02;;;;;;;;;;5060125;28;20027;-81
2021/05/17 06:43:32;;;;;;;490.95;335.17;;;;;;;;;;5074636;28;20035;-80
2021/05/17 06:45:58;;;;;;;490.98;332.48;;;;;;;;;;5071671;28;20021;-80
2021/05/17 06:48:24;;;;;;;499.67;346.50;;;;;;;;;;5070063;28;20032;-80
2021/05/17 06:50:51;;;;;;;510.10;356.73;;;;;;;;;;5074906;28;20107;-81
2021/05/17 06:53:17;;;;;;;501.10;346.75;;;;;;;;;;5069909;28;20044;-79
2021/05/17 06:56:03;;;;;;;509.80;356.25;;;;;;;;;;5070636;28;20470;-80
2021/05/17 06:58:47;;;;;;;518.25;359.05;;;;;;;;;;5062641;28;20028;-79
2021/05/17 07:01:15;;;;;;;517.35;350.13;;;;;;;;;;5068846;28;20035;-79
2021/05/17 07:03:43;;;;;;;531.60;365.83;;;;;;;;;;5074340;28;20095;-80
2021/05/17 07:06:11;;;;;;;546.90;378.20;;;;;;;;;;5062762;28;20047;-81
2021/05/17 07:12:03;;;;;;;516.70;356.85;;;;;;;;;;5078055;28;20581;-86
2021/05/17 07:14:22;;;;;;;540.25;372.25;;;;;;;;;;5076645;28;20081;-84
2021/05/17 07:16:50;;;;;;;512.22;356.13;;;;;;;;;;5066284;28;20028;-83
2021/05/17 07:19:18;;;;;;;503.38;344.27;;;;;;;;;;5074795;28;20079;-82
2021/05/17 07:24:45;;;;;;;509.15;345.70;;;;;;;;;;5084707;28;20704;-84
2021/05/17 07:27:12;;;;;;;528.13;356.58;;;;;;;;;;5068684;28;20028;-85
2021/05/17 07:29:50;;;;;;;514.30;345.25;;;;;;;;;;5068972;28;20059;-84
2021/05/17 07:32:46;;;;;;;524.80;357.02;;;;;;;;;;5070507;28;20040;-89
2021/05/17 07:35:17;;;;;;;521.85;348.73;;;;;;;;;;5059847;28;20040;-84
2021/05/17 07:37:45;;;;;;;529.33;356.45;;;;;;;;;;5068653;28;20052;-84
2021/05/17 07:40:17;;;;;;;511.92;348.45;;;;;;;;;;5064573;28;20012;-83
2021/05/17 07:42:46;;;;;;;519.95;351.08;;;;;;;;;;5069612;28;20036;-85
2021/05/17 07:45:14;;;;;;;486.10;333.17;;;;;;;;;;5061820;28;20055;-83
2021/05/17 07:47:48;;;;;;;515.95;356.05;;;;;;;;;;5073047;28;20020;-85
2021/05/17 07:50:21;;;;;;;518.33;350.65;;;;;;;;;;5061481;28;20107;-84
2021/05/17 07:52:54;;;;;;;537.70;373.73;;;;;;;;;;5065336;28;20040;-85
2021/05/17 07:55:32;;;;;;;521.17;356.98;;;;;;;;;;5064352;28;20038;-83
2021/05/17 07:58:01;;;;;;;564.88;389.83;;;;;;;;;;5059213;28;20542;-84
2021/05/17 08:00:36;;;;;;;540.47;364.33;;;;;;;;;;5065529;28;20430;-89
2021/05/17 08:03:34;;;;;;;516.55;360.77;;;;;;;;;;5072706;28;20013;-84
2021/05/17 08:06:13;;;;;;;;;;;;;;;;;;;;;
2021/05/17 08:08:44;;;;;;;519.65;356.48;;;;;;;;;;5091548;28;20020;-84
2021/05/17 08:11:40;;;;;;;535.72;374.63;;;;;;;;;;5057609;28;20028;-83
2021/05/17 08:14:09;;;;;;;527.10;360.80;;;;;;;;;;5042280;28;20035;-83
2021/05/17 08:16:48;;;;;;;524.47;358.38;;;;;;;;;;5066135;28;20462;-84
2021/05/17 08:19:17;;;;;;;523.90;360.20;;;;;;;;;;5065665;28;20032;-85
2021/05/17 08:21:43;;;;;;;521.97;356.98;;;;;;;;;;5059264;28;20301;-82
2021/05/17 08:24:09;;;;;;;536.28;378.42;;;;;;;;;;5064708;28;20012;-83
2021/05/17 08:26:41;;;;;;;531.72;376.40;;;;;;;;;;5066967;28;20115;-87
2021/05/17 08:29:07;;;;;;;558.72;389.98;;;;;;;;;;5066630;28;20111;-85
2021/05/17 08:31:34;;;;;;;528.88;368.83;;;;;;;;;;5059962;28;20032;-85
2021/05/17 08:34:00;;;;;;;546.38;378.45;;;;;;;;;;5066084;28;20020;-83
2021/05/17 08:36:28;;;;;;;539.60;372.55;;;;;;;;;;5059960;28;20028;-81
2021/05/17 08:39:00;;;;;;;530.03;365.83;;;;;;;;;;5062644;28;20023;-83
2021/05/17 08:41:26;;;;;;;536.42;377.65;;;;;;;;;;5057050;28;20020;-83
2021/05/17 08:43:52;;;;;;;530.30;361.25;;;;;;;;;;5063557;28;20032;-81
2021/05/17 08:46:18;;;;;;;536.65;378.25;;;;;;;;;;5067490;28;20067;-83
2021/05/17 08:48:49;;;;;;;524.00;360.60;;;;;;;;;;5063277;28;20516;-82
2021/05/17 08:51:14;;;;;;;;;;;;;;;;;;5064597;28;20698;-81
2021/05/17 08:53:40;;;;;;;524.33;351.80;;;;;;;;;;5065254;28;19912;-81
2021/05/17 08:56:08;;;;;;;550.22;380.08;;;;;;;;;;5059815;28;20043;-81
2021/05/17 08:58:34;;;;;;;517.35;354.23;;;;;;;;;;5066065;28;20037;-81
2021/05/17 09:01:01;;;;;;;537.10;374.83;;;;;;;;;;5064822;28;20784;-78
2021/05/17 09:03:27;;;;;;;547.45;379.88;;;;;;;;;;5063836;28;20020;-81
2021/05/17 09:05:53;;;;;;;548.60;383.30;;;;;;;;;;5057977;28;20017;-84
2021/05/17 09:08:24;;;;;;;539.72;377.80;;;;;;;;;;5058354;28;20437;-82
2021/05/17 09:10:59;;;;;;;530.10;370.40;;;;;;;;;;5065822;28;20035;-84
2021/05/17 09:13:25;;;;;;;516.80;364.63;;;;;;;;;;5059849;28;20115;-83
2021/05/17 09:15:56;;;;;;;525.30;367.55;;;;;;;;;;5067921;28;20019;-89
2021/05/17 09:18:27;;;;;;;524.65;374.60;;;;;;;;;;5065933;28;20044;-77
2021/05/17 09:47:41;;;;;;;;;;;;;;;;;;;;;
2021/05/17 09:53:43;;;;;;;496.33;351.27;;;;;;;;;;4974816;28;20082;-84
2021/05/17 09:57:01;;;;;;;481.33;344.23;;;;;;;;;;4961968;28;20153;-86
2021/05/17 10:00:05;;;;;;;496.13;351.50;;;;;;;;;;4947463;29;20076;-83
2021/05/17 10:05:49;;;;;;;491.10;360.50;;;;;;;;;;4963271;28;20054;-85
2021/05/17 10:08:24;;;;;;;482.73;369.05;;;;;;;;;;4949893;28;20337;-84
2021/05/17 10:10:51;;;;;;;491.08;384.00;;;;;;;;;;5012433;28;20024;-82
2021/05/17 10:13:21;;;;;;;504.83;400.85;;;;;;;;;;5037036;28;20099;-82
2021/05/17 10:15:48;;;;;;;502.23;396.60;;;;;;;;;;5039172;28;20112;-81
2021/05/17 10:18:17;;;;;;;505.75;401.05;;;;;;;;;;5031864;28;20079;-82
2021/05/17 10:20:44;;;;;;;494.27;388.10;;;;;;;;;;5037472;28;20681;-79
2021/05/17 10:23:12;;;;;;;512.90;402.52;;;;;;;;;;5057506;28;20052;-82
2021/05/17 10:25:42;;;;;;;494.20;382.23;;;;;;;;;;5054254;28;20052;-82
2021/05/17 10:28:13;;;;;;;492.85;373.75;;;;;;;;;;5066572;28;20032;-82
2021/05/17 10:30:40;;;;;;;493.50;382.48;;;;;;;;;;5072307;28;20454;-82
2021/05/17 10:33:12;;;;;;;499.33;377.92;;;;;;;;;;5063559;28;20067;-82
2021/05/17 10:35:41;;;;;;;496.27;375.13;;;;;;;;;;5058285;28;20077;-81
2021/05/17 10:38:21;;;;;;;488.65;371.58;;;;;;;;;;5066625;28;20483;-83
2021/05/17 10:40:53;;;;;;;484.05;368.60;;;;;;;;;;5073363;28;20032;-82
2021/05/17 10:43:39;;;;;;;508.27;396.38;;;;;;;;;;5069314;28;20020;-83
2021/05/17 10:49:14;;;;;;;494.17;386.15;;;;;;;;;;5075256;28;20096;-81
2021/05/17 10:51:44;;;;;;;523.63;418.60;;;;;;;;;;5062585;28;20119;-84
2021/05/17 10:54:35;;;;;;;501.00;401.35;;;;;;;;;;5064564;28;20511;-84
2021/05/17 10:57:16;;;;;;;511.77;426.77;;;;;;;;;;5059639;28;20035;-83
2021/05/17 11:02:43;;;;;;;511.85;430.75;;;;;;;;;;5071501;28;20043;-83
2021/05/17 11:05:14;;;;;;;507.98;419.77;;;;;;;;;;5069069;28;20012;-83
2021/05/17 11:07:53;;;;;;;506.13;412.63;;;;;;;;;;5053587;28;20044;-82
2021/05/17 11:10:26;;;;;;;504.80;399.75;;;;;;;;;;5055053;28;20036;-83
2021/05/17 11:13:01;;;;;;;501.67;393.13;;;;;;;;;;5058197;28;20089;-84
2021/05/17 11:16:14;;;;;;;495.38;371.55;;;;;;;;;;5061228;28;20032;-83
2021/05/17 11:18:45;;;;;;;499.55;369.65;;;;;;;;;;5030241;28;20044;-82
2021/05/17 11:21:14;;;;;;;502.33;369.33;;;;;;;;;;5055580;28;20017;-82
2021/05/17 11:23:49;;;;;;;492.08;364.95;;;;;;;;;;5053599;28;20144;-82
2021/05/17 11:26:17;;;;;;;490.73;356.15;;;;;;;;;;5058154;28;20029;-83
2021/05/17 11:28:45;;;;;;;484.42;352.20;;;;;;;;;;5049836;28;20021;-83
2021/05/17 11:31:33;;;;;;;493.35;363.02;;;;;;;;;;5052749;28;20025;-84
2021/05/17 11:34:02;;;;;;;503.35;372.98;;;;;;;;;;5037531;28;20048;-82
2021/05/17 11:36:28;;;;;;;494.88;370.80;;;;;;;;;;5065034;28;20043;-83
2021/05/17 11:39:18;;;;;;;496.20;372.63;;;;;;;;;;5048022;28;20016;-82
2021/05/17 11:41:47;;;;;;;508.10;385.60;;;;;;;;;;5051530;28;20029;-81
2021/05/17 11:44:17;;;;;;;496.77;385.25;;;;;;;;;;5055437;28;20056;-82
2021/05/17 11:46:47;;;;;;;497.77;396.58;;;;;;;;;;5078335;28;20041;-83
2021/05/17 11:49:14;;;;;;;499.35;397.35;;;;;;;;;;5067552;28;20124;-86
2021/05/17 11:51:47;;;;;;;492.48;391.85;;;;;;;;;;5074265;28;20025;-83
2021/05/17 11:54:18;;;;;;;505.63;399.85;;;;;;;;;;5073275;28;20024;-81
2021/05/17 11:56:45;;;;;;;496.73;391.13;;;;;;;;;;5073309;28;20131;-81
2021/05/17 11:59:14;;;;;;;500.23;389.40;;;;;;;;;;5072135;28;20013;-83
2021/05/17 12:01:42;;;;;;;504.08;390.15;;;;;;;;;;5056123;28;20039;-76
2021/05/17 12:04:29;;;;;;;499.08;383.23;;;;;;;;;;5065668;28;20028;-83
2021/05/17 12:06:55;;;;;;;497.02;379.00;;;;;;;;;;5045326;28;20175;-85
2021/05/17 12:09:33;;;;;;;499.10;381.80;;;;;;;;;;5060112;28;20107;-84
2021/05/17 12:12:03;;;;;;;500.10;388.60;;;;;;;;;;5052964;28;20021;-85
2021/05/17 12:14:31;;;;;;;498.98;385.92;;;;;;;;;;5054205;28;20490;-85
2021/05/17 12:17:10;;;;;;;497.67;381.35;;;;;;;;;;5068294;28;20024;-83
2021/05/17 12:19:50;;;;;;;497.30;383.10;;;;;;;;;;5059831;28;20338;-84
2021/05/17 12:22:27;;;;;;;499.20;381.40;;;;;;;;;;5056699;28;20127;-85
2021/05/17 12:25:06;;;;;;;499.50;390.42;;;;;;;;;;5066843;28;20032;-84
2021/05/17 12:28:03;;;;;;;503.35;405.92;;;;;;;;;;5076323;28;20214;-84
2021/05/17 12:30:32;;;;;;;508.40;420.50;;;;;;;;;;5079770;28;20093;-85
2021/05/17 12:33:09;;;;;;;510.73;438.35;;;;;;;;;;5072451;28;20038;-85
2021/05/17 12:35:52;;;;;;;510.80;450.05;;;;;;;;;;5064495;28;20024;-84
2021/05/17 12:38:22;;;;;;;522.17;465.02;;;;;;;;;;5065222;28;20044;-85
2021/05/17 12:40:56;;;;;;;524.25;467.02;;;;;;;;;;5072147;28;20056;-84
2021/05/17 12:43:35;;;;;;;523.83;466.20;;;;;;;;;;5066158;28;20036;-86
2021/05/17 12:46:13;;;;;;;511.20;447.00;;;;;;;;;;5070334;28;20019;-86
2021/05/17 12:48:47;;;;;;;511.30;438.92;;;;;;;;;;5060021;28;20088;-83
2021/05/17 12:51:33;;;;;;;517.78;440.58;;;;;;;;;;5061798;28;20504;-82
2021/05/17 12:54:19;;;;;;;510.63;434.65;;;;;;;;;;5067145;28;20024;-83
2021/05/17 12:56:45;;;;;;;510.92;437.55;;;;;;;;;;5063705;28;20032;-84
2021/05/17 12:59:11;;;;;;;516.92;451.65;;;;;;;;;;5065287;28;20016;-84
2021/05/17 13:02:00;;;;;;;512.20;448.70;;;;;;;;;;5064068;28;20012;-85
2021/05/17 13:04:34;;;;;;;515.75;447.65;;;;;;;;;;5068258;28;20066;-84
2021/05/17 13:07:39;;;;;;;513.35;448.83;;;;;;;;;;5060889;28;20113;-85
2021/05/17 13:10:05;;;;;;;521.63;447.15;;;;;;;;;;5064087;28;20373;-83
2021/05/17 13:12:55;;;;;;;520.30;443.08;;;;;;;;;;5066848;28;20034;-84
2021/05/17 13:15:33;;;;;;;;;;;;;;;;;;5057938;28;20120;-84
2021/05/17 13:18:07;;;;;;;524.20;456.17;;;;;;;;;;5072252;28;19908;-84
2021/05/17 13:20:36;;;;;;;540.10;482.13;;;;;;;;;;5067338;28;20044;-82
2021/05/17 13:24:00;;;;;;;550.90;492.52;;;;;;;;;;5069251;28;20460;-85
2021/05/17 13:32:28;;;;;;;512.70;452.52;;;;;;;;;;5082057;28;20070;-83
2021/05/17 13:37:52;;;;;;;503.25;418.05;;;;;;;;;;5027596;28;20029;-82
2021/05/17 13:43:23;;;;;;;498.92;397.17;;;;;;;;;;5083750;28;20430;-83
2021/05/17 13:46:25;;;;;;;504.50;403.77;;;;;;;;;;5066282;28;20024;-84
2021/05/17 13:48:58;;;;;;;502.13;394.50;;;;;;;;;;5025485;28;20052;-87
2021/05/17 13:51:39;;;;;;;509.73;404.17;;;;;;;;;;5073892;28;20032;-84
2021/05/17 13:54:05;;;;;;;508.83;403.60;;;;;;;;;;5059240;28;20028;-84
2021/05/17 13:56:31;;;;;;;503.30;397.15;;;;;;;;;;5060874;28;20105;-83
2021/05/17 13:59:10;;;;;;;504.30;400.70;;;;;;;;;;5065422;28;20113;-84
2021/05/17 14:01:40;;;;;;;507.37;401.03;;;;;;;;;;5060360;28;20028;-84
2021/05/17 14:04:27;;;;;;;509.42;401.17;;;;;;;;;;5059503;28;20442;-84
2021/05/17 14:07:10;;;;;;;504.33;387.75;;;;;;;;;;5068511;28;20044;-83
2021/05/17 14:09:36;;;;;;;507.90;392.30;;;;;;;;;;5061526;28;20044;-83
2021/05/17 14:12:15;;;;;;;;;;;;;;;;;;;;;
2021/05/17 14:14:47;;;;;;;520.47;409.25;;;;;;;;;;5076556;28;20020;-86
2021/05/17 14:17:17;;;;;;;515.47;402.20;;;;;;;;;;5057127;28;20020;-84
2021/05/17 14:19:46;;;;;;;499.20;386.77;;;;;;;;;;5063923;28;20028;-83
2021/05/17 14:22:18;;;;;;;507.15;395.05;;;;;;;;;;5058864;28;20024;-84
2021/05/17 14:24:44;;;;;;;517.15;411.52;;;;;;;;;;5065811;28;20097;-82
2021/05/17 14:27:10;;;;;;;510.52;414.27;;;;;;;;;;5058916;28;20028;-84
2021/05/17 14:29:49;;;;;;;512.30;429.23;;;;;;;;;;5064227;28;20032;-84
2021/05/17 14:32:18;;;;;;;520.70;446.20;;;;;;;;;;5061759;28;20027;-84
2021/05/17 14:34:44;;;;;;;526.35;459.50;;;;;;;;;;5055296;28;20390;-84
2021/05/17 14:37:15;;;;;;;519.22;442.92;;;;;;;;;;5053919;28;20041;-83
2021/05/17 14:39:41;;;;;;;513.70;429.42;;;;;;;;;;5060191;28;20464;-83
2021/05/17 14:42:14;;;;;;;508.70;420.88;;;;;;;;;;5054100;28;20033;-85
2021/05/17 14:44:40;;;;;;;509.05;413.55;;;;;;;;;;5053784;28;20127;-82
2021/05/17 14:47:06;;;;;;;515.30;424.98;;;;;;;;;;5061067;28;20028;-85
2021/05/17 14:49:33;;;;;;;512.28;420.33;;;;;;;;;;5063672;28;20070;-84
2021/05/17 14:52:08;;;;;;;509.88;420.35;;;;;;;;;;5065542;28;20066;-84
2021/05/17 14:54:38;;;;;;;513.75;421.30;;;;;;;;;;5068927;28;20024;-83
2021/05/17 14:57:04;;;;;;;519.85;426.90;;;;;;;;;;5065895;28;20048;-84
2021/05/17 14:59:45;;;;;;;512.30;416.98;;;;;;;;;;5066923;28;20023;-83
2021/05/17 15:02:20;;;;;;;509.63;411.30;;;;;;;;;;5059755;28;20029;-85
2021/05/17 15:04:46;;;;;;;506.25;402.23;;;;;;;;;;5058294;28;20427;-85
2021/05/17 15:07:32;;;;;;;506.48;402.13;;;;;;;;;;5077405;28;20040;-84
2021/05/17 15:10:22;;;;;;;511.65;400.08;;;;;;;;;;5063291;28;20021;-85
2021/05/17 15:12:54;;;;;;;511.50;398.80;;;;;;;;;;5068033;28;20033;-84
2021/05/17 15:15:32;;;;;;;524.65;408.67;;;;;;;;;;5068923;28;20070;-84
2021/05/17 15:18:01;;;;;;;540.22;420.13;;;;;;;;;;5060861;28;20036;-84
2021/05/17 15:20:56;;;;;;;594.95;457.33;;;;;;;;;;5065556;28;20024;-84
2021/05/17 15:23:25;;;;;;;579.97;437.70;;;;;;;;;;5069965;28;20035;-83
2021/05/17 15:26:01;;;;;;;528.03;406.73;;;;;;;;;;5052068;28;20097;-83
2021/05/17 15:31:43;;;;;;;519.00;398.27;;;;;;;;;;5042683;28;20051;-83